Time;durP1;ratioP1;P1;durP2;ratioP2;P2;SDS_P1;SDS_P2;PMS_P1;PMS_P2;Temp;Humidity;BMP_temperature;BMP_pressure;BME280_temperature;BME280_humidity;BME280_pressure;Samples;Min_cycle;Max_cycle;Signal;HPM_P1;HPM_P2
2024/04/15 00:01:08;;;;;;;;;;;;;;;;;;5307314;26;19930;-82
2024/04/15 00:03:35;;;;;;;;;;;;;;;;;;5329530;26;20045;-82
2024/04/15 00:06:00;;;;;;;;;;;;;;;;;;5328257;26;20013;-85
2024/04/15 00:08:25;;;;;;;;;;;;;;;;;;5338841;26;19936;-84
2024/04/15 00:10:53;;;;;;;;;;;;;;;;;;5319128;26;19941;-84
2024/04/15 00:13:21;;;;;;;;;;;;;;;;;;5345985;26;19940;-88
2024/04/15 00:15:46;;;;;;;;;;;;;;;;;;5353309;26;19942;-85
2024/04/15 00:18:13;;;;;;;;;;;;;;;;;;5341839;26;19930;-87
2024/04/15 00:20:38;;;;;;;;;;;;;;;;;;5314497;26;20017;-86
2024/04/15 00:23:06;;;;;;;;;;;;;;;;;;5349950;26;19943;-86
2024/04/15 00:25:31;;;;;;;;;;;;;;;;;;5303293;26;20292;-85
2024/04/15 00:27:56;;;;;;;;;;;;;;;;;;5321413;26;19930;-85
2024/04/15 00:30:27;;;;;;;;;;;;;;;;;;5353054;26;20017;-86
2024/04/15 00:32:54;;;;;;;;;;;;;;;;;;5344048;26;19938;-85
2024/04/15 00:35:19;;;;;;;;;;;;;;;;;;5348763;26;19936;-86
2024/04/15 00:37:45;;;;;;;;;;;;;;;;;;5346140;26;19937;-85
2024/04/15 00:40:13;;;;;;;;;;;;;;;;;;5321420;26;19930;-87
2024/04/15 00:42:39;;;;;;;;;;;;;;;;;;5320061;26;19937;-88
2024/04/15 00:45:05;;;;;;;;;;;;;;;;;;5346396;26;19937;-83
2024/04/15 00:47:30;;;;;;;;;;;;;;;;;;5328135;26;20042;-86
2024/04/15 00:49:56;;;;;;;;;;;;;;;;;;5314287;26;19937;-85
2024/04/15 00:52:22;;;;;;;;;;;;;;;;;;5310098;26;19951;-86
2024/04/15 00:54:50;;;;;;;;;;;;;;;;;;5286086;26;19930;-86
2024/04/15 00:57:15;;;;;;;;;;;;;;;;;;5315034;26;20001;-84
2024/04/15 00:59:41;;;;;;;;;;;;;;;;;;5281578;26;20327;-84
2024/04/15 01:02:08;;;;;;;;;;;;;;;;;;5339895;26;19938;-87
2024/04/15 01:04:35;;;;;;;;;;;;;;;;;;5312160;26;20616;-88
2024/04/15 01:07:01;;;;;;;;;;;;;;;;;;5338676;26;19966;-84
2024/04/15 13:49:47;;;;;;;;;;;;;;;;;;5389846;21;19995;-71
2024/04/15 13:52:13;;;;;;;;;;;;;;;;;;5343087;26;19945;-77
2024/04/15 13:54:39;;;;;;;;;;;;;;;;;;5338560;26;19930;-76
2024/04/15 13:57:08;;;;;;;;;;;;;;;;;;5376914;26;20036;-71
2024/04/15 13:59:33;;;;;;;;;;;;;;;;;;5377914;26;20389;-72
2024/04/15 14:01:58;;;;;;;;;;;;;;;;;;5344875;26;19929;-74
2024/04/15 14:04:24;;;;;;;;;;;;;;;;;;5343919;26;20563;-74
2024/04/15 14:06:50;;;;;;;;;;;;;;;;;;5339768;26;20378;-73
2024/04/15 14:09:24;;;;;;;;;;;;;;;;;;5308349;26;20381;-71
2024/04/15 14:11:52;;;;;;;;;;;;;;;;;;5351746;26;20005;-72
2024/04/15 14:14:20;;;;;;;;;;;;;;;;;;5369554;26;19936;-69
2024/04/15 14:16:48;;;;;;;;;;;;;;;;;;5305473;26;22468;-71
2024/04/15 14:19:14;;;;;;;;;;;;;;;;;;5368790;26;19936;-73
2024/04/15 14:21:43;;;;;;;;;;;;;;;;;;5334203;26;19929;-70
2024/04/15 14:24:39;;;;;;;;;;;;;;;;;;;;;
2024/04/15 14:27:07;;;;;;;;;;;;;;;;;;5369023;26;19937;-79
2024/04/15 14:29:35;;;;;;;;;;;;;;;;;;5371384;26;19999;-70
2024/04/15 14:32:05;;;;;;;;;;;;;;;;;;5336438;26;21256;-69
2024/04/15 14:34:33;;;;;;;;;;;;;;;;;;5369400;26;20615;-67
2024/04/15 14:37:01;;;;;;;;;;;;;;;;;;5368492;26;19933;-71
2024/04/15 14:39:34;;;;;;;;;;;;;;;;;;5317385;26;19939;-71
2024/04/15 14:42:01;;;;;;;;;;;;;;;;;;5339497;26;20170;-70
2024/04/15 14:44:33;;;;;;;;;;;;;;;;;;5339896;26;19933;-73
2024/04/15 14:47:01;;;;;;;;;;;;;;;;;;5340450;26;19989;-74
2024/04/15 14:49:28;;;;;;;;;;;;;;;;;;5309840;26;19941;-74
2024/04/15 14:51:57;;;;;;;;;;;;;;;;;;5345117;26;19937;-71
2024/04/15 14:54:24;;;;;;;;;;;;;;;;;;5370215;26;19933;-73
2024/04/15 14:56:49;;;;;;;;;;;;;;;;;;5368442;26;19940;-70
2024/04/15 14:59:30;;;;;;;;;;;;;;;;;;;;;
2024/04/15 15:02:00;;;;;;;;;;;;;;;;;;5367458;26;19940;-70
2024/04/15 15:04:40;;;;;;;;;;;;;;;;;;5342212;26;19985;-74
2024/04/15 15:07:06;;;;;;;;;;;;;;;;;;5377411;26;19929;-77
2024/04/15 15:09:34;;;;;;;;;;;;;;;;;;5309819;26;19930;-75
2024/04/15 15:12:03;;;;;;;;;;;;;;;;;;5376806;26;19957;-74
2024/04/15 15:14:29;;;;;;;;;;;;;;;;;;5340006;26;19936;-77
2024/04/15 15:16:59;;;;;;;;;;;;;;;;;;5321955;26;20027;-72
2024/04/15 15:19:27;;;;;;;;;;;;;;;;;;5340556;26;19929;-74
2024/04/15 15:21:52;;;;;;;;;;;;;;;;;;5370636;26;19949;-70
2024/04/15 15:24:20;;;;;;;;;;;;;;;;;;5375714;26;19937;-73
2024/04/15 15:26:46;;;;;;;;;;;;;;;;;;5310734;26;19948;-75
2024/04/15 15:29:13;;;;;;;;;;;;;;;;;;5345279;26;19943;-74
2024/04/15 15:31:39;;;;;;;;;;;;;;;;;;5310137;26;19929;-74
2024/04/15 15:34:04;;;;;;;;;;;;;;;;;;5343939;26;19936;-72
2024/04/15 15:36:30;;;;;;;;;;;;;;;;;;5340570;26;19934;-76
2024/04/15 15:38:57;;;;;;;;;;;;;;;;;;5344491;26;20707;-71
2024/04/15 15:41:24;;;;;;;;;;;;;;;;;;5374850;26;19929;-75
2024/04/15 15:43:50;;;;;;;;;;;;;;;;;;5338607;26;21031;-70
2024/04/15 15:46:16;;;;;;;;;;;;;;;;;;5372094;26;19940;-72
2024/04/15 15:48:42;;;;;;;;;;;;;;;;;;5373948;26;20035;-71
2024/04/15 15:51:07;;;;;;;;;;;;;;;;;;5347454;26;19952;-74
2024/04/15 15:53:33;;;;;;;;;;;;;;;;;;5371530;26;19937;-73
2024/04/15 15:55:58;;;;;;;;;;;;;;;;;;5374624;26;20056;-76
2024/04/15 15:58:26;;;;;;;;;;;;;;;;;;5376092;26;20331;-74
2024/04/15 16:00:55;;;;;;;;;;;;;;;;;;5375197;26;19937;-69
2024/04/15 16:03:20;;;;;;;;;;;;;;;;;;5304127;26;19941;-75
2024/04/15 16:05:49;;;;;;;;;;;;;;;;;;5377544;26;19948;-73
2024/04/15 16:08:17;;;;;;;;;;;;;;;;;;5347159;26;19966;-72
2024/04/15 16:10:52;;;;;;;;;;;;;;;;;;5315836;26;19937;-70
2024/04/15 16:13:19;;;;;;;;;;;;;;;;;;5307206;26;19940;-72
2024/04/15 16:15:45;;;;;;;;;;;;;;;;;;5371945;26;20053;-68
2024/04/15 16:18:14;;;;;;;;;;;;;;;;;;5347009;26;20037;-68
2024/04/15 16:20:40;;;;;;;;;;;;;;;;;;5373030;26;19929;-70
2024/04/15 16:23:07;;;;;;;;;;;;;;;;;;5351046;26;20332;-68
2024/04/15 16:25:35;;;;;;;;;;;;;;;;;;5370429;26;20130;-68
2024/04/15 16:28:11;;;;;;;;;;;;;;;;;;5339833;26;19942;-68
2024/04/15 16:30:37;;;;;;;;;;;;;;;;;;5321620;26;19944;-69
2024/04/15 16:33:02;;;;;;;;;;;;;;;;;;5349686;26;20051;-72
2024/04/15 16:35:31;;;;;;;;;;;;;;;;;;5341867;26;19932;-69
2024/04/15 16:37:57;;;;;;;;;;;;;;;;;;5335543;26;19941;-69
2024/04/15 16:40:31;;;;;;;;;;;;;;;;;;5306907;26;20487;-68
2024/04/15 16:42:57;;;;;;;;;;;;;;;;;;5344015;26;19929;-69
2024/04/15 16:45:23;;;;;;;;;;;;;;;;;;5338871;26;20485;-69
2024/04/15 16:47:58;;;;;;;;;;;;;;;;;;5373326;26;20270;-68
2024/04/15 16:50:27;;;;;;;;;;;;;;;;;;5369774;26;19937;-74
2024/04/15 16:53:01;;;;;;;;;;;;;;;;;;5373803;26;19943;-74
2024/04/15 16:55:30;;;;;;;;;;;;;;;;;;5350915;26;19999;-74
2024/04/15 16:58:02;;;;;;;;;;;;;;;;;;5341944;26;19937;-74
2024/04/15 17:00:31;;;;;;;;;;;;;;;;;;5308748;26;20354;-73
2024/04/15 17:06:17;;;;;;;;;;;;;;;;;;5374032;26;19941;-71
2024/04/15 17:08:45;;;;;;;;;;;;;;;;;;5339960;26;19952;-74
2024/04/15 17:11:12;;;;;;;;;;;;;;;;;;5368578;26;19937;-69
2024/04/15 17:13:40;;;;;;;;;;;;;;;;;;5340743;26;19937;-72
2024/04/15 17:16:18;;;;;;;;;;;;;;;;;;5304365;26;19948;-75
2024/04/15 17:18:59;;;;;;;;;;;;;;;;;;5371191;26;20580;-73
2024/04/15 17:21:24;;;;;;;;;;;;;;;;;;5310003;26;20670;-73
2024/04/15 17:23:52;;;;;;;;;;;;;;;;;;5373082;26;19941;-76
2024/04/15 17:26:17;;;;;;;;;;;;;;;;;;5342556;26;19985;-74
2024/04/15 17:28:43;;;;;;;;;;;;;;;;;;5341491;26;19963;-72
2024/04/15 17:31:13;;;;;;;;;;;;;;;;;;5343516;26;19937;-76
2024/04/15 17:33:39;;;;;;;;;;;;;;;;;;5313954;26;19934;-74
2024/04/15 17:36:05;;;;;;;;;;;;;;;;;;5374151;26;19976;-71
2024/04/15 17:38:32;;;;;;;;;;;;;;;;;;5349389;26;19929;-77
2024/04/15 17:40:57;;;;;;;;;;;;;;;;;;5346432;26;19958;-76
2024/04/15 17:43:26;;;;;;;;;;;;;;;;;;5342482;26;19929;-77
2024/04/15 17:45:51;;;;;;;;;;;;;;;;;;5379323;26;20026;-73
2024/04/15 17:48:16;;;;;;;;;;;;;;;;;;5339195;26;20017;-72
2024/04/15 17:50:43;;;;;;;;;;;;;;;;;;5366310;26;19936;-71
2024/04/15 17:53:11;;;;;;;;;;;;;;;;;;5342729;26;19941;-73
2024/04/15 17:55:38;;;;;;;;;;;;;;;;;;5373057;26;20547;-74
2024/04/15 17:58:03;;;;;;;;;;;;;;;;;;5382405;26;19937;-72
2024/04/15 18:00:29;;;;;;;;;;;;;;;;;;5374438;26;20352;-73
2024/04/15 18:02:54;;;;;;;;;;;;;;;;;;5380766;26;19947;-71
2024/04/15 18:05:24;;;;;;;;;;;;;;;;;;5371300;26;20039;-71
2024/04/15 18:07:50;;;;;;;;;;;;;;;;;;5354437;26;22278;-72
2024/04/15 18:10:15;;;;;;;;;;;;;;;;;;5374770;26;19937;-72
2024/04/15 18:12:43;;;;;;;;;;;;;;;;;;5336203;26;20955;-73
2024/04/15 18:15:08;;;;;;;;;;;;;;;;;;5379525;26;19940;-68
2024/04/15 18:17:33;;;;;;;;;;;;;;;;;;5370420;26;20004;-67
2024/04/15 18:20:03;;;;;;;;;;;;;;;;;;5371609;26;20544;-70
2024/04/15 18:22:31;;;;;;;;;;;;;;;;;;5368178;26;20593;-67
2024/04/15 18:24:59;;;;;;;;;;;;;;;;;;5351337;26;20249;-70
2024/04/15 18:27:27;;;;;;;;;;;;;;;;;;5368180;26;20603;-79
2024/04/15 18:29:53;;;;;;;;;;;;;;;;;;5381323;26;19999;-70
2024/04/15 18:32:18;;;;;;;;;;;;;;;;;;5365487;26;20326;-67
2024/04/15 18:34:46;;;;;;;;;;;;;;;;;;5368633;26;19957;-68
2024/04/15 18:37:12;;;;;;;;;;;;;;;;;;5369191;26;20305;-72
2024/04/15 18:39:37;;;;;;;;;;;;;;;;;;5370499;26;19944;-70
2024/04/15 18:42:05;;;;;;;;;;;;;;;;;;5310110;26;22637;-68
2024/04/15 18:44:31;;;;;;;;;;;;;;;;;;5368628;26;19945;-68
2024/04/15 18:46:56;;;;;;;;;;;;;;;;;;5368105;26;20039;-68
2024/04/15 18:49:21;;;;;;;;;;;;;;;;;;5360421;26;19936;-66
2024/04/15 18:51:49;;;;;;;;;;;;;;;;;;5406521;26;20606;-68
2024/04/15 18:54:14;;;;;;;;;;;;;;;;;;5400718;26;20113;-69
2024/04/15 18:56:39;;;;;;;;;;;;;;;;;;5406262;26;19928;-69
2024/04/15 18:59:04;;;;;;;;;;;;;;;;;;5344877;26;20347;-68
2024/04/15 19:01:30;;;;;;;;;;;;;;;;;;5372100;26;19943;-67
2024/04/15 19:03:58;;;;;;;;;;;;;;;;;;5371678;26;20137;-69
2024/04/15 19:06:26;;;;;;;;;;;;;;;;;;5372700;26;20016;-68
2024/04/15 19:08:56;;;;;;;;;;;;;;;;;;5371776;26;19937;-68
2024/04/15 19:11:21;;;;;;;;;;;;;;;;;;5374438;26;21008;-68
2024/04/15 19:13:47;;;;;;;;;;;;;;;;;;5350920;26;19929;-69
2024/04/15 19:16:12;;;;;;;;;;;;;;;;;;5410425;26;19936;-68
2024/04/15 19:18:38;;;;;;;;;;;;;;;;;;5346086;26;19939;-67
2024/04/15 19:21:03;;;;;;;;;;;;;;;;;;5346934;26;19929;-69
2024/04/15 19:23:28;;;;;;;;;;;;;;;;;;5374797;26;20005;-69
2024/04/15 19:25:55;;;;;;;;;;;;;;;;;;5377545;26;19998;-68
2024/04/15 19:28:22;;;;;;;;;;;;;;;;;;5376721;26;19941;-68
2024/04/15 19:30:48;;;;;;;;;;;;;;;;;;5410251;26;19947;-68
2024/04/15 19:33:13;;;;;;;;;;;;;;;;;;5404641;26;19933;-67
2024/04/15 19:35:38;;;;;;;;;;;;;;;;;;5376876;26;20063;-68
2024/04/15 19:38:06;;;;;;;;;;;;;;;;;;5403699;26;20598;-68
2024/04/15 19:40:31;;;;;;;;;;;;;;;;;;5380942;26;20063;-71
2024/04/15 19:42:58;;;;;;;;;;;;;;;;;;5370778;26;19937;-71
2024/04/15 19:45:25;;;;;;;;;;;;;;;;;;5347761;26;20028;-69
2024/04/15 19:47:53;;;;;;;;;;;;;;;;;;5370502;26;20029;-67
2024/04/15 19:50:21;;;;;;;;;;;;;;;;;;5404836;26;20030;-68
2024/04/15 19:52:49;;;;;;;;;;;;;;;;;;5404097;26;19947;-68
2024/04/15 19:55:15;;;;;;;;;;;;;;;;;;5375849;26;19936;-67
2024/04/15 19:57:43;;;;;;;;;;;;;;;;;;5407549;26;19940;-70
2024/04/15 20:00:11;;;;;;;;;;;;;;;;;;5404615;26;20344;-67
2024/04/15 20:02:37;;;;;;;;;;;;;;;;;;5373360;26;20011;-67
2024/04/15 20:05:05;;;;;;;;;;;;;;;;;;5373925;26;19929;-67
2024/04/15 20:07:33;;;;;;;;;;;;;;;;;;5375873;26;20259;-68
2024/04/15 20:09:59;;;;;;;;;;;;;;;;;;5404687;26;19979;-67
2024/04/15 20:12:24;;;;;;;;;;;;;;;;;;5385191;26;20048;-66
2024/04/15 20:14:49;;;;;;;;;;;;;;;;;;5348147;26;19965;-67
2024/04/15 20:17:28;;;;;;;;;;;;;;;;;;5370330;26;20073;-67
2024/04/15 20:20:01;;;;;;;;;;;;;;;;;;5404545;26;19941;-67
2024/04/15 20:22:26;;;;;;;;;;;;;;;;;;5373087;26;20231;-67
2024/04/15 20:24:51;;;;;;;;;;;;;;;;;;5375514;26;20345;-68
2024/04/15 20:27:17;;;;;;;;;;;;;;;;;;5399627;26;19936;-66
2024/04/15 20:29:42;;;;;;;;;;;;;;;;;;5384167;26;20498;-67
2024/04/15 20:32:07;;;;;;;;;;;;;;;;;;5406867;26;20026;-67
2024/04/15 20:34:33;;;;;;;;;;;;;;;;;;5343191;26;19965;-66
2024/04/15 20:36:58;;;;;;;;;;;;;;;;;;5403733;26;20018;-68
2024/04/15 20:39:26;;;;;;;;;;;;;;;;;;5405937;26;20147;-67
2024/04/15 20:41:51;;;;;;;;;;;;;;;;;;5374588;26;19929;-67
2024/04/15 20:44:17;;;;;;;;;;;;;;;;;;5351596;26;20434;-66
2024/04/15 20:46:42;;;;;;;;;;;;;;;;;;5370571;26;20028;-66
2024/04/15 20:49:07;;;;;;;;;;;;;;;;;;5341578;26;19976;-66
2024/04/15 20:51:33;;;;;;;;;;;;;;;;;;5407437;26;19996;-66
2024/04/15 20:53:58;;;;;;;;;;;;;;;;;;5375419;26;20348;-65
2024/04/15 20:56:23;;;;;;;;;;;;;;;;;;5371491;26;20039;-66
2024/04/15 20:58:49;;;;;;;;;;;;;;;;;;5408038;26;19943;-66
2024/04/15 21:01:14;;;;;;;;;;;;;;;;;;5403456;26;19932;-66
2024/04/15 21:03:40;;;;;;;;;;;;;;;;;;5371819;26;19936;-66
2024/04/15 21:06:05;;;;;;;;;;;;;;;;;;5403752;26;20413;-66
2024/04/15 21:08:31;;;;;;;;;;;;;;;;;;5373699;26;20054;-67
2024/04/15 21:10:56;;;;;;;;;;;;;;;;;;5405278;26;20009;-66
2024/04/15 21:13:21;;;;;;;;;;;;;;;;;;5385067;26;19947;-66
2024/04/15 21:15:47;;;;;;;;;;;;;;;;;;5371222;26;19942;-65
2024/04/15 21:18:15;;;;;;;;;;;;;;;;;;5401474;26;19936;-67
2024/04/15 21:20:43;;;;;;;;;;;;;;;;;;5343471;26;19928;-66
2024/04/15 21:23:08;;;;;;;;;;;;;;;;;;5403768;26;19963;-67
2024/04/15 21:25:34;;;;;;;;;;;;;;;;;;5378399;26;19932;-67
2024/04/15 21:27:59;;;;;;;;;;;;;;;;;;5373362;26;19942;-66
2024/04/15 21:30:24;;;;;;;;;;;;;;;;;;5373654;26;19943;-66
2024/04/15 21:32:49;;;;;;;;;;;;;;;;;;5372831;26;20969;-66
2024/04/15 21:35:15;;;;;;;;;;;;;;;;;;5404334;26;19982;-67
2024/04/15 21:37:40;;;;;;;;;;;;;;;;;;5374376;26;20552;-67
2024/04/15 21:40:08;;;;;;;;;;;;;;;;;;5371705;26;20261;-67
2024/04/15 21:42:38;;;;;;;;;;;;;;;;;;5402956;26;19978;-72
2024/04/15 21:45:03;;;;;;;;;;;;;;;;;;5377557;26;20365;-73
2024/04/15 21:47:31;;;;;;;;;;;;;;;;;;5373673;26;19948;-67
2024/04/15 21:49:56;;;;;;;;;;;;;;;;;;5383686;26;20078;-68
2024/04/15 21:52:24;;;;;;;;;;;;;;;;;;5382846;26;20680;-73
2024/04/15 21:54:49;;;;;;;;;;;;;;;;;;5371954;26;20502;-66
2024/04/15 21:57:14;;;;;;;;;;;;;;;;;;5381220;26;19967;-68
2024/04/15 21:59:40;;;;;;;;;;;;;;;;;;5376590;26;19969;-67
2024/04/15 22:02:05;;;;;;;;;;;;;;;;;;5363117;26;20115;-65
2024/04/15 22:04:33;;;;;;;;;;;;;;;;;;5373398;26;20425;-67
2024/04/15 22:06:58;;;;;;;;;;;;;;;;;;5372881;26;19953;-67
2024/04/15 22:09:24;;;;;;;;;;;;;;;;;;5340693;26;20741;-65
2024/04/15 22:11:49;;;;;;;;;;;;;;;;;;5396131;26;19936;-65
2024/04/15 22:14:14;;;;;;;;;;;;;;;;;;5369268;26;19929;-65
2024/04/15 22:16:40;;;;;;;;;;;;;;;;;;5406304;26;19976;-65
2024/04/15 22:19:05;;;;;;;;;;;;;;;;;;5369114;26;19928;-65
2024/04/15 22:21:30;;;;;;;;;;;;;;;;;;5390708;26;19940;-66
2024/04/15 22:23:55;;;;;;;;;;;;;;;;;;5378876;26;20016;-65
2024/04/15 22:26:26;;;;;;;;;;;;;;;;;;5377305;26;19944;-65
2024/04/15 22:28:54;;;;;;;;;;;;;;;;;;5401871;26;21149;-66
2024/04/15 22:31:20;;;;;;;;;;;;;;;;;;5367120;26;19944;-67
2024/04/15 22:33:48;;;;;;;;;;;;;;;;;;5385471;26;20049;-68
2024/04/15 22:36:15;;;;;;;;;;;;;;;;;;5337754;26;19979;-65
2024/04/15 22:38:43;;;;;;;;;;;;;;;;;;5394189;26;20312;-76
2024/04/15 22:41:11;;;;;;;;;;;;;;;;;;5349424;26;20248;-69
2024/04/15 22:43:36;;;;;;;;;;;;;;;;;;5394506;26;19936;-69
2024/04/15 22:46:01;;;;;;;;;;;;;;;;;;5372725;26;19928;-71
2024/04/15 22:48:30;;;;;;;;;;;;;;;;;;5391247;26;20343;-69
2024/04/15 22:50:57;;;;;;;;;;;;;;;;;;5362840;26;19949;-68
2024/04/15 22:53:24;;;;;;;;;;;;;;;;;;5354140;26;20011;-71
2024/04/15 22:55:55;;;;;;;;;;;;;;;;;;5359242;26;19936;-73
2024/04/15 22:58:20;;;;;;;;;;;;;;;;;;5351177;26;19940;-70
2024/04/15 23:00:45;;;;;;;;;;;;;;;;;;5343091;26;20071;-69
2024/04/15 23:03:10;;;;;;;;;;;;;;;;;;5341088;26;19938;-69
2024/04/15 23:05:35;;;;;;;;;;;;;;;;;;5337929;26;19998;-71
2024/04/15 23:08:03;;;;;;;;;;;;;;;;;;5349060;26;22317;-70
2024/04/15 23:10:29;;;;;;;;;;;;;;;;;;5370645;26;19937;-66
2024/04/15 23:12:56;;;;;;;;;;;;;;;;;;5362843;26;19938;-71
2024/04/15 23:15:22;;;;;;;;;;;;;;;;;;5374454;26;20062;-69
2024/04/15 23:17:50;;;;;;;;;;;;;;;;;;5349158;26;19930;-69
2024/04/15 23:20:18;;;;;;;;;;;;;;;;;;5369014;26;19945;-67
2024/04/15 23:22:43;;;;;;;;;;;;;;;;;;5364812;26;19930;-69
2024/04/15 23:25:09;;;;;;;;;;;;;;;;;;5366513;26;19944;-68
2024/04/15 23:27:34;;;;;;;;;;;;;;;;;;5353584;26;20373;-71
2024/04/15 23:29:59;;;;;;;;;;;;;;;;;;5348332;26;20679;-69
2024/04/15 23:32:27;;;;;;;;;;;;;;;;;;5374475;26;20261;-67
2024/04/15 23:34:52;;;;;;;;;;;;;;;;;;5312121;26;19955;-67
2024/04/15 23:37:17;;;;;;;;;;;;;;;;;;5314506;26;19941;-68
2024/04/15 23:39:42;;;;;;;;;;;;;;;;;;5353455;26;19948;-68
2024/04/15 23:42:08;;;;;;;;;;;;;;;;;;5341928;26;19940;-70
2024/04/15 23:44:35;;;;;;;;;;;;;;;;;;5370128;26;20436;-67
2024/04/15 23:47:00;;;;;;;;;;;;;;;;;;5340484;26;19972;-68
2024/04/15 23:49:28;;;;;;;;;;;;;;;;;;5376045;26;19941;-67
2024/04/15 23:51:53;;;;;;;;;;;;;;;;;;5348512;26;19968;-66
2024/04/15 23:54:24;;;;;;;;;;;;;;;;;;5349705;26;19942;-69
2024/04/15 23:56:49;;;;;;;;;;;;;;;;;;5340270;26;20471;-68
2024/04/15 23:59:15;;;;;;;;;;;;;;;;;;5341805;26;19937;-67
